sensor_id;sensor_type;location;lat;lon;timestamp;P1;durP1;ratioP1;P2;durP2;ratioP2
81815;SDS011;71249;52.084;5.304;2024-01-11T00:00:20;18.91;;;12.5;;
81815;SDS011;71249;52.084;5.304;2024-01-11T00:03:32;20.7;;;12.5;;
81815;SDS011;71249;52.084;5.304;2024-01-11T00:05:08;18.0;;;12.2;;
81815;SDS011;71249;52.084;5.304;2024-01-11T00:06:45;19.8;;;12.9;;
81815;SDS011;71249;52.084;5.304;2024-01-11T00:08:21;18.61;;;12.8;;
81815;SDS011;71249;52.084;5.304;2024-01-11T00:11:33;19.3;;;12.7;;
81815;SDS011;71249;52.084;5.304;2024-01-11T00:13:09;22.0;;;13.5;;
81815;SDS011;71249;52.084;5.304;2024-01-11T00:14:45;19.8;;;13.0;;
81815;SDS011;71249;52.084;5.304;2024-01-11T00:17:58;19.8;;;13.0;;
81815;SDS011;71249;52.084;5.304;2024-01-11T00:19:34;19.5;;;12.6;;
81815;SDS011;71249;52.084;5.304;2024-01-11T00:21:10;19.5;;;13.9;;
81815;SDS011;71249;52.084;5.304;2024-01-11T00:24:22;19.5;;;13.9;;
81815;SDS011;71249;52.084;5.304;2024-01-11T00:25:58;21.2;;;15.0;;
81815;SDS011;71249;52.084;5.304;2024-01-11T00:27:34;20.5;;;13.1;;
81815;SDS011;71249;52.084;5.304;2024-01-11T00:30:46;19.7;;;12.7;;
81815;SDS011;71249;52.084;5.304;2024-01-11T00:32:22;20.8;;;13.5;;
81815;SDS011;71249;52.084;5.304;2024-01-11T00:33:59;19.61;;;12.9;;
81815;SDS011;71249;52.084;5.304;2024-01-11T00:35:35;18.3;;;13.2;;
81815;SDS011;71249;52.084;5.304;2024-01-11T00:38:47;20.41;;;14.6;;
81815;SDS011;71249;52.084;5.304;2024-01-11T00:40:23;19.7;;;14.6;;
81815;SDS011;71249;52.084;5.304;2024-01-11T00:41:59;21.9;;;14.9;;
81815;SDS011;71249;52.084;5.304;2024-01-11T00:45:11;23.7;;;14.6;;
81815;SDS011;71249;52.084;5.304;2024-01-11T00:46:47;21.4;;;14.0;;
81815;SDS011;71249;52.084;5.304;2024-01-11T00:48:23;24.5;;;14.5;;
81815;SDS011;71249;52.084;5.304;2024-01-11T00:51:35;22.0;;;15.6;;
81815;SDS011;71249;52.084;5.304;2024-01-11T00:53:12;23.1;;;14.9;;
81815;SDS011;71249;52.084;5.304;2024-01-11T00:54:48;21.1;;;14.6;;
81815;SDS011;71249;52.084;5.304;2024-01-11T00:58:00;21.9;;;14.7;;
81815;SDS011;71249;52.084;5.304;2024-01-11T00:59:36;24.5;;;14.5;;
81815;SDS011;71249;52.084;5.304;2024-01-11T01:01:12;23.2;;;15.4;;
81815;SDS011;71249;52.084;5.304;2024-01-11T01:02:48;21.7;;;15.1;;
81815;SDS011;71249;52.084;5.304;2024-01-11T01:06:00;22.0;;;15.2;;
81815;SDS011;71249;52.084;5.304;2024-01-11T01:07:36;25.1;;;15.2;;
81815;SDS011;71249;52.084;5.304;2024-01-11T01:09:13;21.7;;;15.4;;
81815;SDS011;71249;52.084;5.304;2024-01-11T01:12:25;23.3;;;15.7;;
81815;SDS011;71249;52.084;5.304;2024-01-11T01:14:01;24.6;;;15.9;;
81815;SDS011;71249;52.084;5.304;2024-01-11T01:15:37;24.2;;;15.6;;
81815;SDS011;71249;52.084;5.304;2024-01-11T01:18:49;23.2;;;15.7;;
81815;SDS011;71249;52.084;5.304;2024-01-11T01:20:25;24.6;;;16.3;;
81815;SDS011;71249;52.084;5.304;2024-01-11T01:22:01;24.0;;;15.5;;
81815;SDS011;71249;52.084;5.304;2024-01-11T01:25:14;25.4;;;16.3;;
81815;SDS011;71249;52.084;5.304;2024-01-11T01:26:50;24.0;;;15.8;;
81815;SDS011;71249;52.084;5.304;2024-01-11T01:28:26;26.0;;;16.5;;
81815;SDS011;71249;52.084;5.304;2024-01-11T01:30:02;22.8;;;15.5;;
81815;SDS011;71249;52.084;5.304;2024-01-11T01:33:15;27.3;;;17.41;;
81815;SDS011;71249;52.084;5.304;2024-01-11T01:34:51;26.2;;;17.3;;
81815;SDS011;71249;52.084;5.304;2024-01-11T01:36:27;27.8;;;16.4;;
81815;SDS011;71249;52.084;5.304;2024-01-11T01:39:39;25.3;;;16.5;;
81815;SDS011;71249;52.084;5.304;2024-01-11T01:41:15;26.8;;;17.41;;
81815;SDS011;71249;52.084;5.304;2024-01-11T01:42:57;27.4;;;17.41;;
81815;SDS011;71249;52.084;5.304;2024-01-11T01:46:10;29.0;;;19.3;;
81815;SDS011;71249;52.084;5.304;2024-01-11T01:47:47;31.1;;;19.2;;
81815;SDS011;71249;52.084;5.304;2024-01-11T01:49:23;42.6;;;25.5;;
81815;SDS011;71249;52.084;5.304;2024-01-11T01:51:00;50.5;;;30.2;;
81815;SDS011;71249;52.084;5.304;2024-01-11T01:54:18;56.5;;;32.3;;
81815;SDS011;71249;52.084;5.304;2024-01-11T01:55:56;51.1;;;30.0;;
81815;SDS011;71249;52.084;5.304;2024-01-11T01:57:33;47.5;;;28.2;;
81815;SDS011;71249;52.084;5.304;2024-01-11T02:00:48;39.1;;;24.4;;
81815;SDS011;71249;52.084;5.304;2024-01-11T02:02:27;44.5;;;25.2;;
81815;SDS011;71249;52.084;5.304;2024-01-11T02:04:04;41.7;;;26.0;;
81815;SDS011;71249;52.084;5.304;2024-01-11T02:05:40;42.1;;;23.2;;
81815;SDS011;71249;52.084;5.304;2024-01-11T02:08:53;40.5;;;25.4;;
81815;SDS011;71249;52.084;5.304;2024-01-11T02:10:31;38.1;;;22.6;;
81815;SDS011;71249;52.084;5.304;2024-01-11T02:12:08;36.81;;;23.3;;
81815;SDS011;71249;52.084;5.304;2024-01-11T02:15:21;35.81;;;22.3;;
81815;SDS011;71249;52.084;5.304;2024-01-11T02:16:57;36.0;;;21.8;;
81815;SDS011;71249;52.084;5.304;2024-01-11T02:18:33;36.31;;;22.4;;
81815;SDS011;71249;52.084;5.304;2024-01-11T02:20:11;29.9;;;19.5;;
81815;SDS011;71249;52.084;5.304;2024-01-11T02:23:29;31.0;;;18.91;;
81815;SDS011;71249;52.084;5.304;2024-01-11T02:25:06;28.4;;;18.5;;
81815;SDS011;71249;52.084;5.304;2024-01-11T02:26:57;29.7;;;18.91;;
81815;SDS011;71249;52.084;5.304;2024-01-11T02:28:34;27.3;;;18.0;;
81815;SDS011;71249;52.084;5.304;2024-01-11T02:31:47;29.3;;;18.3;;
81815;SDS011;71249;52.084;5.304;2024-01-11T02:33:23;30.6;;;18.7;;
81815;SDS011;71249;52.084;5.304;2024-01-11T02:34:59;29.2;;;19.3;;
81815;SDS011;71249;52.084;5.304;2024-01-11T02:38:15;34.6;;;20.9;;
81815;SDS011;71249;52.084;5.304;2024-01-11T02:39:52;32.4;;;20.3;;
81815;SDS011;71249;52.084;5.304;2024-01-11T02:41:29;38.31;;;22.8;;
81815;SDS011;71249;52.084;5.304;2024-01-11T02:44:44;40.21;;;22.8;;
81815;SDS011;71249;52.084;5.304;2024-01-11T02:46:20;35.81;;;21.3;;
81815;SDS011;71249;52.084;5.304;2024-01-11T02:47:56;46.3;;;25.9;;
81815;SDS011;71249;52.084;5.304;2024-01-11T02:49:32;45.8;;;25.1;;
81815;SDS011;71249;52.084;5.304;2024-01-11T02:52:44;49.1;;;26.0;;
81815;SDS011;71249;52.084;5.304;2024-01-11T02:54:20;48.4;;;26.4;;
81815;SDS011;71249;52.084;5.304;2024-01-11T02:55:56;48.7;;;27.2;;
81815;SDS011;71249;52.084;5.304;2024-01-11T02:59:12;46.2;;;26.1;;
81815;SDS011;71249;52.084;5.304;2024-01-11T03:00:48;35.1;;;21.4;;
81815;SDS011;71249;52.084;5.304;2024-01-11T03:02:24;35.6;;;20.9;;
81815;SDS011;71249;52.084;5.304;2024-01-11T03:05:36;31.7;;;19.91;;
81815;SDS011;71249;52.084;5.304;2024-01-11T03:07:12;30.7;;;19.3;;
81815;SDS011;71249;52.084;5.304;2024-01-11T03:08:48;30.1;;;18.91;;
81815;SDS011;71249;52.084;5.304;2024-01-11T03:10:24;30.3;;;18.41;;
81815;SDS011;71249;52.084;5.304;2024-01-11T03:13:36;29.6;;;19.5;;
81815;SDS011;71249;52.084;5.304;2024-01-11T03:15:12;31.3;;;19.61;;
81815;SDS011;71249;52.084;5.304;2024-01-11T03:16:49;31.1;;;19.0;;
81815;SDS011;71249;52.084;5.304;2024-01-11T03:20:01;28.9;;;18.8;;
81815;SDS011;71249;52.084;5.304;2024-01-11T03:21:40;34.81;;;20.3;;
81815;SDS011;71249;52.084;5.304;2024-01-11T03:23:18;28.1;;;18.2;;
81815;SDS011;71249;52.084;5.304;2024-01-11T03:26:30;30.2;;;19.2;;
81815;SDS011;71249;52.084;5.304;2024-01-11T03:28:06;31.3;;;20.11;;
81815;SDS011;71249;52.084;5.304;2024-01-11T03:29:42;33.6;;;20.0;;
81815;SDS011;71249;52.084;5.304;2024-01-11T03:31:19;33.1;;;20.3;;
81815;SDS011;71249;52.084;5.304;2024-01-11T03:34:31;31.6;;;19.2;;
81815;SDS011;71249;52.084;5.304;2024-01-11T03:36:07;32.71;;;21.2;;
81815;SDS011;71249;52.084;5.304;2024-01-11T03:37:44;32.5;;;21.3;;
81815;SDS011;71249;52.084;5.304;2024-01-11T03:40:56;31.7;;;20.7;;
81815;SDS011;71249;52.084;5.304;2024-01-11T03:42:32;35.31;;;21.3;;
81815;SDS011;71249;52.084;5.304;2024-01-11T03:44:08;32.3;;;19.7;;
81815;SDS011;71249;52.084;5.304;2024-01-11T03:47:20;32.5;;;20.11;;
81815;SDS011;71249;52.084;5.304;2024-01-11T03:48:56;31.8;;;19.5;;
81815;SDS011;71249;52.084;5.304;2024-01-11T03:50:32;32.9;;;20.3;;
81815;SDS011;71249;52.084;5.304;2024-01-11T03:53:45;30.9;;;19.91;;
81815;SDS011;71249;52.084;5.304;2024-01-11T03:55:21;33.1;;;20.2;;
81815;SDS011;71249;52.084;5.304;2024-01-11T03:56:57;34.21;;;20.7;;
81815;SDS011;71249;52.084;5.304;2024-01-11T03:58:35;32.9;;;21.4;;
81815;SDS011;71249;52.084;5.304;2024-01-11T04:01:48;33.1;;;20.7;;
81815;SDS011;71249;52.084;5.304;2024-01-11T04:03:24;33.4;;;20.6;;
81815;SDS011;71249;52.084;5.304;2024-01-11T04:05:00;34.0;;;20.5;;
81815;SDS011;71249;52.084;5.304;2024-01-11T04:08:12;35.5;;;20.2;;
81815;SDS011;71249;52.084;5.304;2024-01-11T04:09:49;31.2;;;20.3;;
81815;SDS011;71249;52.084;5.304;2024-01-11T04:11:26;34.1;;;21.4;;
81815;SDS011;71249;52.084;5.304;2024-01-11T04:14:39;37.1;;;21.5;;
81815;SDS011;71249;52.084;5.304;2024-01-11T04:16:15;31.7;;;20.41;;
81815;SDS011;71249;52.084;5.304;2024-01-11T04:17:51;34.6;;;21.8;;
81815;SDS011;71249;52.084;5.304;2024-01-11T04:19:27;34.4;;;20.9;;
81815;SDS011;71249;52.084;5.304;2024-01-11T04:22:39;37.5;;;23.5;;
81815;SDS011;71249;52.084;5.304;2024-01-11T04:24:15;35.6;;;22.2;;
81815;SDS011;71249;52.084;5.304;2024-01-11T04:25:51;38.6;;;24.6;;
81815;SDS011;71249;52.084;5.304;2024-01-11T04:29:04;35.81;;;23.1;;
81815;SDS011;71249;52.084;5.304;2024-01-11T04:30:41;41.4;;;25.3;;
81815;SDS011;71249;52.084;5.304;2024-01-11T04:32:17;38.0;;;24.7;;
81815;SDS011;71249;52.084;5.304;2024-01-11T04:35:29;40.1;;;25.3;;
81815;SDS011;71249;52.084;5.304;2024-01-11T04:37:05;40.9;;;26.2;;
81815;SDS011;71249;52.084;5.304;2024-01-11T04:38:42;40.4;;;26.8;;
81815;SDS011;71249;52.084;5.304;2024-01-11T04:40:18;41.5;;;26.4;;
81815;SDS011;71249;52.084;5.304;2024-01-11T04:43:30;45.7;;;29.3;;
81815;SDS011;71249;52.084;5.304;2024-01-11T04:45:07;44.9;;;28.2;;
81815;SDS011;71249;52.084;5.304;2024-01-11T04:46:43;43.7;;;27.1;;
81815;SDS011;71249;52.084;5.304;2024-01-11T04:49:56;47.3;;;29.5;;
81815;SDS011;71249;52.084;5.304;2024-01-11T04:51:32;43.4;;;28.2;;
81815;SDS011;71249;52.084;5.304;2024-01-11T04:53:08;44.5;;;28.3;;
81815;SDS011;71249;52.084;5.304;2024-01-11T04:56:20;47.4;;;28.7;;
81815;SDS011;71249;52.084;5.304;2024-01-11T04:57:56;47.0;;;28.1;;
81815;SDS011;71249;52.084;5.304;2024-01-11T04:59:32;42.0;;;27.6;;
81815;SDS011;71249;52.084;5.304;2024-01-11T05:02:47;45.4;;;29.3;;
81815;SDS011;71249;52.084;5.304;2024-01-11T05:04:23;44.5;;;29.4;;
81815;SDS011;71249;52.084;5.304;2024-01-11T05:06:00;45.9;;;30.0;;
81815;SDS011;71249;52.084;5.304;2024-01-11T05:07:36;46.1;;;28.5;;
81815;SDS011;71249;52.084;5.304;2024-01-11T05:10:48;46.2;;;29.5;;
81815;SDS011;71249;52.084;5.304;2024-01-11T05:12:24;49.6;;;30.6;;
81815;SDS011;71249;52.084;5.304;2024-01-11T05:13:59;47.2;;;28.5;;
81815;SDS011;71249;52.084;5.304;2024-01-11T05:17:11;46.2;;;30.2;;
81815;SDS011;71249;52.084;5.304;2024-01-11T05:18:48;43.4;;;28.7;;
81815;SDS011;71249;52.084;5.304;2024-01-11T05:20:25;45.1;;;29.2;;
81815;SDS011;71249;52.084;5.304;2024-01-11T05:23:39;47.3;;;29.7;;
81815;SDS011;71249;52.084;5.304;2024-01-11T05:25:16;48.5;;;30.2;;
81815;SDS011;71249;52.084;5.304;2024-01-11T05:26:52;45.8;;;29.2;;
81815;SDS011;71249;52.084;5.304;2024-01-11T05:28:28;44.7;;;29.1;;
81815;SDS011;71249;52.084;5.304;2024-01-11T05:31:41;44.7;;;29.1;;
81815;SDS011;71249;52.084;5.304;2024-01-11T05:33:17;46.9;;;29.4;;
81815;SDS011;71249;52.084;5.304;2024-01-11T05:34:53;45.5;;;29.7;;
81815;SDS011;71249;52.084;5.304;2024-01-11T05:38:05;47.3;;;30.3;;
81815;SDS011;71249;52.084;5.304;2024-01-11T05:39:41;48.4;;;31.3;;
81815;SDS011;71249;52.084;5.304;2024-01-11T05:41:17;45.7;;;30.9;;
81815;SDS011;71249;52.084;5.304;2024-01-11T05:44:29;49.3;;;30.6;;
81815;SDS011;71249;52.084;5.304;2024-01-11T05:46:05;48.6;;;31.1;;
81815;SDS011;71249;52.084;5.304;2024-01-11T05:47:44;50.8;;;32.21;;
81815;SDS011;71249;52.084;5.304;2024-01-11T05:49:20;48.6;;;31.4;;
81815;SDS011;71249;52.084;5.304;2024-01-11T05:52:32;50.5;;;31.6;;
81815;SDS011;71249;52.084;5.304;2024-01-11T05:54:08;50.2;;;31.7;;
81815;SDS011;71249;52.084;5.304;2024-01-11T05:55:44;54.7;;;34.1;;
81815;SDS011;71249;52.084;5.304;2024-01-11T05:58:56;54.4;;;33.71;;
81815;SDS011;71249;52.084;5.304;2024-01-11T06:00:33;54.2;;;34.5;;
81815;SDS011;71249;52.084;5.304;2024-01-11T06:02:09;58.6;;;35.5;;
81815;SDS011;71249;52.084;5.304;2024-01-11T06:05:21;54.6;;;34.21;;
81815;SDS011;71249;52.084;5.304;2024-01-11T06:06:57;56.5;;;35.0;;
81815;SDS011;71249;52.084;5.304;2024-01-11T06:08:33;55.8;;;35.71;;
81815;SDS011;71249;52.084;5.304;2024-01-11T06:11:46;51.6;;;34.71;;
81815;SDS011;71249;52.084;5.304;2024-01-11T06:13:21;54.6;;;34.31;;
81815;SDS011;71249;52.084;5.304;2024-01-11T06:14:58;51.6;;;34.31;;
81815;SDS011;71249;52.084;5.304;2024-01-11T06:16:34;58.3;;;35.71;;
81815;SDS011;71249;52.084;5.304;2024-01-11T06:19:46;55.1;;;36.21;;
81815;SDS011;71249;52.084;5.304;2024-01-11T06:21:22;57.0;;;35.31;;
81815;SDS011;71249;52.084;5.304;2024-01-11T06:22:58;57.9;;;38.4;;
81815;SDS011;71249;52.084;5.304;2024-01-11T06:26:10;56.7;;;37.4;;
81815;SDS011;71249;52.084;5.304;2024-01-11T06:27:47;59.2;;;38.0;;
81815;SDS011;71249;52.084;5.304;2024-01-11T06:29:23;62.6;;;40.5;;
81815;SDS011;71249;52.084;5.304;2024-01-11T06:32:35;58.6;;;36.71;;
81815;SDS011;71249;52.084;5.304;2024-01-11T06:34:11;59.2;;;38.81;;
81815;SDS011;71249;52.084;5.304;2024-01-11T06:35:47;59.2;;;39.81;;
81815;SDS011;71249;52.084;5.304;2024-01-11T06:38:59;62.3;;;40.1;;
81815;SDS011;71249;52.084;5.304;2024-01-11T06:40:35;57.5;;;38.4;;
81815;SDS011;71249;52.084;5.304;2024-01-11T06:42:11;61.4;;;40.9;;
81815;SDS011;71249;52.084;5.304;2024-01-11T06:43:47;63.2;;;41.7;;
81815;SDS011;71249;52.084;5.304;2024-01-11T06:47:00;59.9;;;39.6;;
81815;SDS011;71249;52.084;5.304;2024-01-11T06:48:36;62.4;;;40.5;;
81815;SDS011;71249;52.084;5.304;2024-01-11T06:50:12;58.7;;;39.31;;
81815;SDS011;71249;52.084;5.304;2024-01-11T06:53:24;61.7;;;40.0;;
81815;SDS011;71249;52.084;5.304;2024-01-11T06:55:00;65.6;;;41.5;;
81815;SDS011;71249;52.084;5.304;2024-01-11T06:56:36;62.9;;;40.1;;
81815;SDS011;71249;52.084;5.304;2024-01-11T06:59:48;57.1;;;37.5;;
81815;SDS011;71249;52.084;5.304;2024-01-11T07:01:24;62.3;;;39.71;;
81815;SDS011;71249;52.084;5.304;2024-01-11T07:03:00;65.7;;;37.5;;
81815;SDS011;71249;52.084;5.304;2024-01-11T07:06:13;63.2;;;38.1;;
81815;SDS011;71249;52.084;5.304;2024-01-11T07:07:49;58.6;;;37.6;;
81815;SDS011;71249;52.084;5.304;2024-01-11T07:09:25;60.9;;;37.9;;
81815;SDS011;71249;52.084;5.304;2024-01-11T07:11:01;58.1;;;38.1;;
81815;SDS011;71249;52.084;5.304;2024-01-11T07:14:15;63.0;;;37.9;;
81815;SDS011;71249;52.084;5.304;2024-01-11T07:15:51;61.6;;;38.1;;
81815;SDS011;71249;52.084;5.304;2024-01-11T07:17:30;63.3;;;40.4;;
81815;SDS011;71249;52.084;5.304;2024-01-11T07:20:42;57.2;;;38.21;;
81815;SDS011;71249;52.084;5.304;2024-01-11T07:22:18;64.0;;;40.1;;
81815;SDS011;71249;52.084;5.304;2024-01-11T07:23:55;60.6;;;37.81;;
81815;SDS011;71249;52.084;5.304;2024-01-11T07:27:07;63.1;;;39.1;;
81815;SDS011;71249;52.084;5.304;2024-01-11T07:28:43;66.0;;;40.81;;
81815;SDS011;71249;52.084;5.304;2024-01-11T07:30:19;63.9;;;38.31;;
81815;SDS011;71249;52.084;5.304;2024-01-11T07:31:55;63.1;;;40.0;;
81815;SDS011;71249;52.084;5.304;2024-01-11T07:35:07;65.0;;;41.2;;
81815;SDS011;71249;52.084;5.304;2024-01-11T07:36:44;65.5;;;41.5;;
81815;SDS011;71249;52.084;5.304;2024-01-11T07:38:20;72.61;;;40.81;;
81815;SDS011;71249;52.084;5.304;2024-01-11T07:41:33;70.7;;;41.6;;
81815;SDS011;71249;52.084;5.304;2024-01-11T07:43:09;63.7;;;39.0;;
81815;SDS011;71249;52.084;5.304;2024-01-11T07:44:45;66.3;;;40.21;;
81815;SDS011;71249;52.084;5.304;2024-01-11T07:47:57;63.7;;;38.31;;
81815;SDS011;71249;52.084;5.304;2024-01-11T07:49:33;62.8;;;39.4;;
81815;SDS011;71249;52.084;5.304;2024-01-11T07:51:09;65.5;;;39.4;;
81815;SDS011;71249;52.084;5.304;2024-01-11T07:52:45;66.2;;;40.31;;
81815;SDS011;71249;52.084;5.304;2024-01-11T07:55:58;60.5;;;39.0;;
81815;SDS011;71249;52.084;5.304;2024-01-11T07:57:34;61.9;;;42.1;;
81815;SDS011;71249;52.084;5.304;2024-01-11T07:59:11;61.2;;;39.9;;
81815;SDS011;71249;52.084;5.304;2024-01-11T08:02:27;63.5;;;40.4;;
81815;SDS011;71249;52.084;5.304;2024-01-11T08:04:03;61.0;;;40.21;;
81815;SDS011;71249;52.084;5.304;2024-01-11T08:05:40;62.3;;;41.8;;
81815;SDS011;71249;52.084;5.304;2024-01-11T08:08:52;60.7;;;40.81;;
81815;SDS011;71249;52.084;5.304;2024-01-11T08:10:28;65.91;;;40.71;;
81815;SDS011;71249;52.084;5.304;2024-01-11T08:12:04;63.6;;;41.7;;
81815;SDS011;71249;52.084;5.304;2024-01-11T08:13:41;63.6;;;41.7;;
81815;SDS011;71249;52.084;5.304;2024-01-11T08:16:54;67.1;;;40.71;;
81815;SDS011;71249;52.084;5.304;2024-01-11T08:18:30;63.7;;;40.0;;
81815;SDS011;71249;52.084;5.304;2024-01-11T08:20:06;63.5;;;40.6;;
81815;SDS011;71249;52.084;5.304;2024-01-11T08:23:19;64.2;;;40.71;;
81815;SDS011;71249;52.084;5.304;2024-01-11T08:24:55;62.3;;;40.21;;
81815;SDS011;71249;52.084;5.304;2024-01-11T08:26:31;59.4;;;39.9;;
81815;SDS011;71249;52.084;5.304;2024-01-11T08:29:43;62.9;;;41.4;;
81815;SDS011;71249;52.084;5.304;2024-01-11T08:31:19;65.8;;;42.9;;
81815;SDS011;71249;52.084;5.304;2024-01-11T08:32:55;72.11;;;43.3;;
81815;SDS011;71249;52.084;5.304;2024-01-11T08:36:08;67.41;;;41.9;;
81815;SDS011;71249;52.084;5.304;2024-01-11T08:37:44;64.41;;;41.2;;
81815;SDS011;71249;52.084;5.304;2024-01-11T08:39:20;62.5;;;42.5;;
81815;SDS011;71249;52.084;5.304;2024-01-11T08:40:56;61.9;;;40.81;;
81815;SDS011;71249;52.084;5.304;2024-01-11T08:44:08;61.3;;;40.6;;
81815;SDS011;71249;52.084;5.304;2024-01-11T08:45:45;61.2;;;41.6;;
81815;SDS011;71249;52.084;5.304;2024-01-11T08:47:24;61.9;;;39.5;;
81815;SDS011;71249;52.084;5.304;2024-01-11T08:50:37;59.5;;;40.0;;
81815;SDS011;71249;52.084;5.304;2024-01-11T08:52:13;65.6;;;41.8;;
81815;SDS011;71249;52.084;5.304;2024-01-11T08:53:50;63.2;;;41.2;;
81815;SDS011;71249;52.084;5.304;2024-01-11T08:57:02;64.5;;;42.4;;
81815;SDS011;71249;52.084;5.304;2024-01-11T08:58:39;64.3;;;41.6;;
81815;SDS011;71249;52.084;5.304;2024-01-11T09:00:15;65.41;;;43.6;;
81815;SDS011;71249;52.084;5.304;2024-01-11T09:01:51;65.3;;;43.5;;
81815;SDS011;71249;52.084;5.304;2024-01-11T09:05:03;69.5;;;45.1;;
81815;SDS011;71249;52.084;5.304;2024-01-11T09:06:40;63.9;;;44.7;;
81815;SDS011;71249;52.084;5.304;2024-01-11T09:08:16;78.8;;;47.2;;
81815;SDS011;71249;52.084;5.304;2024-01-11T09:11:29;66.1;;;44.2;;
81815;SDS011;71249;52.084;5.304;2024-01-11T09:13:05;64.3;;;44.7;;
81815;SDS011;71249;52.084;5.304;2024-01-11T09:14:41;72.2;;;46.9;;
81815;SDS011;71249;52.084;5.304;2024-01-11T09:17:53;69.91;;;47.8;;
81815;SDS011;71249;52.084;5.304;2024-01-11T09:19:29;66.1;;;45.7;;
81815;SDS011;71249;52.084;5.304;2024-01-11T09:21:05;65.91;;;46.2;;
81815;SDS011;71249;52.084;5.304;2024-01-11T09:24:17;63.5;;;46.1;;
81815;SDS011;71249;52.084;5.304;2024-01-11T09:25:53;62.8;;;44.6;;
81815;SDS011;71249;52.084;5.304;2024-01-11T09:27:29;59.9;;;42.7;;
81815;SDS011;71249;52.084;5.304;2024-01-11T09:32:18;63.7;;;41.7;;
81815;SDS011;71249;52.084;5.304;2024-01-11T09:33:54;57.3;;;41.4;;
81815;SDS011;71249;52.084;5.304;2024-01-11T09:35:30;57.7;;;40.5;;
81815;SDS011;71249;52.084;5.304;2024-01-11T09:38:42;57.9;;;41.6;;
81815;SDS011;71249;52.084;5.304;2024-01-11T09:40:18;60.8;;;41.4;;
81815;SDS011;71249;52.084;5.304;2024-01-11T09:41:57;59.4;;;41.2;;
81815;SDS011;71249;52.084;5.304;2024-01-11T09:45:12;55.4;;;40.21;;
81815;SDS011;71249;52.084;5.304;2024-01-11T09:46:49;55.1;;;39.21;;
81815;SDS011;71249;52.084;5.304;2024-01-11T09:48:26;57.3;;;39.81;;
81815;SDS011;71249;52.084;5.304;2024-01-11T09:50:03;54.1;;;38.0;;
81815;SDS011;71249;52.084;5.304;2024-01-11T09:53:20;54.5;;;37.81;;
81815;SDS011;71249;52.084;5.304;2024-01-11T09:54:58;54.3;;;37.21;;
81815;SDS011;71249;52.084;5.304;2024-01-11T09:56:34;55.4;;;37.9;;
81815;SDS011;71249;52.084;5.304;2024-01-11T09:59:47;52.9;;;36.71;;
81815;SDS011;71249;52.084;5.304;2024-01-11T10:01:27;56.1;;;35.31;;
81815;SDS011;71249;52.084;5.304;2024-01-11T10:03:03;85.1;;;37.81;;
81815;SDS011;71249;52.084;5.304;2024-01-11T10:04:41;61.3;;;36.21;;
81815;SDS011;71249;52.084;5.304;2024-01-11T10:07:54;53.2;;;34.1;;
81815;SDS011;71249;52.084;5.304;2024-01-11T10:09:31;54.4;;;34.6;;
81815;SDS011;71249;52.084;5.304;2024-01-11T10:11:07;59.8;;;34.9;;
81815;SDS011;71249;52.084;5.304;2024-01-11T10:14:19;57.1;;;35.6;;
81815;SDS011;71249;52.084;5.304;2024-01-11T10:16:05;55.2;;;33.8;;
81815;SDS011;71249;52.084;5.304;2024-01-11T10:17:44;55.0;;;33.1;;
81815;SDS011;71249;52.084;5.304;2024-01-11T10:19:21;57.7;;;34.1;;
81815;SDS011;71249;52.084;5.304;2024-01-11T10:22:33;52.5;;;32.1;;
81815;SDS011;71249;52.084;5.304;2024-01-11T10:24:09;50.9;;;32.4;;
81815;SDS011;71249;52.084;5.304;2024-01-11T10:25:45;51.8;;;31.9;;
81815;SDS011;71249;52.084;5.304;2024-01-11T10:29:05;52.1;;;32.21;;
81815;SDS011;71249;52.084;5.304;2024-01-11T10:30:44;50.1;;;31.3;;
81815;SDS011;71249;52.084;5.304;2024-01-11T10:32:21;51.8;;;31.7;;
81815;SDS011;71249;52.084;5.304;2024-01-11T10:33:57;50.9;;;31.8;;
81815;SDS011;71249;52.084;5.304;2024-01-11T10:37:11;48.6;;;30.0;;
81815;SDS011;71249;52.084;5.304;2024-01-11T10:38:49;47.9;;;29.2;;
81815;SDS011;71249;52.084;5.304;2024-01-11T10:40:28;52.2;;;30.3;;
81815;SDS011;71249;52.084;5.304;2024-01-11T10:43:41;55.9;;;35.21;;
81815;SDS011;71249;52.084;5.304;2024-01-11T10:45:19;63.0;;;35.5;;
81815;SDS011;71249;52.084;5.304;2024-01-11T10:46:56;63.0;;;37.81;;
81815;SDS011;71249;52.084;5.304;2024-01-11T10:48:32;72.41;;;47.3;;
81815;SDS011;71249;52.084;5.304;2024-01-11T10:51:53;71.41;;;44.5;;
81815;SDS011;71249;52.084;5.304;2024-01-11T10:53:38;60.7;;;39.0;;
81815;SDS011;71249;52.084;5.304;2024-01-11T10:55:17;55.4;;;34.4;;
81815;SDS011;71249;52.084;5.304;2024-01-11T10:56:54;56.0;;;35.0;;
81815;SDS011;71249;52.084;5.304;2024-01-11T11:00:11;51.8;;;32.5;;
81815;SDS011;71249;52.084;5.304;2024-01-11T11:01:48;53.3;;;32.8;;
81815;SDS011;71249;52.084;5.304;2024-01-11T11:03:25;53.8;;;31.4;;
81815;SDS011;71249;52.084;5.304;2024-01-11T11:06:40;48.6;;;30.6;;
81815;SDS011;71249;52.084;5.304;2024-01-11T11:08:18;53.4;;;32.4;;
81815;SDS011;71249;52.084;5.304;2024-01-11T11:09:55;45.5;;;29.2;;
81815;SDS011;71249;52.084;5.304;2024-01-11T11:11:33;46.3;;;29.0;;
81815;SDS011;71249;52.084;5.304;2024-01-11T11:14:50;45.7;;;28.7;;
81815;SDS011;71249;52.084;5.304;2024-01-11T11:16:28;49.7;;;29.5;;
81815;SDS011;71249;52.084;5.304;2024-01-11T11:18:05;47.1;;;28.8;;
81815;SDS011;71249;52.084;5.304;2024-01-11T11:21:18;46.7;;;29.1;;
81815;SDS011;71249;52.084;5.304;2024-01-11T11:23:02;45.5;;;28.1;;
81815;SDS011;71249;52.084;5.304;2024-01-11T11:24:42;45.5;;;28.8;;
81815;SDS011;71249;52.084;5.304;2024-01-11T11:26:19;41.6;;;27.6;;
81815;SDS011;71249;52.084;5.304;2024-01-11T11:29:31;43.1;;;27.7;;
81815;SDS011;71249;52.084;5.304;2024-01-11T11:31:07;43.3;;;27.8;;
81815;SDS011;71249;52.084;5.304;2024-01-11T11:32:44;41.3;;;28.2;;
81815;SDS011;71249;52.084;5.304;2024-01-11T11:36:17;44.2;;;28.1;;
81815;SDS011;71249;52.084;5.304;2024-01-11T11:37:54;41.7;;;26.7;;
81815;SDS011;71249;52.084;5.304;2024-01-11T11:39:32;43.9;;;27.2;;
81815;SDS011;71249;52.084;5.304;2024-01-11T11:41:08;37.9;;;26.2;;
81815;SDS011;71249;52.084;5.304;2024-01-11T11:44:21;39.5;;;25.9;;
81815;SDS011;71249;52.084;5.304;2024-01-11T11:45:57;34.0;;;24.2;;
81815;SDS011;71249;52.084;5.304;2024-01-11T11:47:33;37.9;;;24.0;;
81815;SDS011;71249;52.084;5.304;2024-01-11T11:49:11;37.1;;;25.2;;
81815;SDS011;71249;52.084;5.304;2024-01-11T11:52:24;45.2;;;28.1;;
81815;SDS011;71249;52.084;5.304;2024-01-11T11:54:00;41.5;;;26.8;;
81815;SDS011;71249;52.084;5.304;2024-01-11T11:55:38;36.0;;;24.1;;
81815;SDS011;71249;52.084;5.304;2024-01-11T11:58:53;46.8;;;24.5;;
81815;SDS011;71249;52.084;5.304;2024-01-11T12:00:29;36.9;;;23.2;;
81815;SDS011;71249;52.084;5.304;2024-01-11T12:02:06;34.81;;;23.5;;
81815;SDS011;71249;52.084;5.304;2024-01-11T12:03:52;40.9;;;23.4;;
81815;SDS011;71249;52.084;5.304;2024-01-11T12:07:04;34.9;;;22.5;;
81815;SDS011;71249;52.084;5.304;2024-01-11T12:08:41;38.5;;;23.6;;
81815;SDS011;71249;52.084;5.304;2024-01-11T12:10:20;34.1;;;23.0;;
81815;SDS011;71249;52.084;5.304;2024-01-11T12:13:33;32.8;;;21.9;;
81815;SDS011;71249;52.084;5.304;2024-01-11T12:15:09;33.71;;;22.5;;
81815;SDS011;71249;52.084;5.304;2024-01-11T12:16:45;36.6;;;23.6;;
81815;SDS011;71249;52.084;5.304;2024-01-11T12:19:57;34.21;;;23.5;;
81815;SDS011;71249;52.084;5.304;2024-01-11T12:21:36;34.71;;;25.7;;
81815;SDS011;71249;52.084;5.304;2024-01-11T12:23:12;43.0;;;31.8;;
81815;SDS011;71249;52.084;5.304;2024-01-11T12:24:48;40.0;;;28.9;;
81815;SDS011;71249;52.084;5.304;2024-01-11T12:28:02;34.1;;;26.1;;
81815;SDS011;71249;52.084;5.304;2024-01-11T12:29:39;38.1;;;30.2;;
81815;SDS011;71249;52.084;5.304;2024-01-11T12:31:15;55.3;;;49.5;;
81815;SDS011;71249;52.084;5.304;2024-01-11T12:34:29;35.31;;;26.7;;
81815;SDS011;71249;52.084;5.304;2024-01-11T12:36:06;32.3;;;25.5;;